Detalii statie AGRALMIXT [00001CED]

Toti senzorii

Date Temperatura solului [C]Precipitatii [mm]Voltaj baterie [mV]Leaf Wetness [Min]HC Air temperature [C]HC Relative humidity [%]Punctul de roua [C]
medieminmaxsumaultimatimpmedieminmaxmediemediemin
2017-06-25 06:00:00 0 7030 18.97 17.22 20.46 91.23 17.3 16.8
2017-06-25 07:00:00 0 7332 21.97 20.34 24.28 76 17.3 16.9
2017-06-25 08:00:00 0 7332 25.15 23.89 26.38 61.25 16.9 16.1
2017-06-25 09:00:00 0 7324 27.25 26.7 27.97 55.2 17.3 16.5
2017-06-25 10:00:00 0 7324 28.62 28.24 29.6 51.27 17.3 16.5
2017-06-25 11:00:00 0 7324 30.22 29.41 30.9 47.27 17.5 16.7
2017-06-25 12:00:00 0 7324 31.53 30.93 32.33 43.91 17.5 15.4
2017-06-25 13:00:00 0 7324 32.2 31.27 32.76 40.82 16.9 15.9
2017-06-25 14:00:00 0 7324 32.64 31.82 33.51 38.55 16.4 14.9
2017-06-25 15:00:00 0 7304 31.57 31.02 32.32 40 16 15
2017-06-25 16:00:00 0 7148 31.54 31.14 31.97 39.11 15.7 14.3
2017-06-25 17:00:00 0 7294 31.37 30.84 32.03 39.08 15.5 14.1
2017-06-25 18:00:00 0 7304 30 29.39 30.75 41.56 15.3 14.5
2017-06-25 19:00:00 0 6914 28.35 27.21 29.27 49.5 16.5 15.3
2017-06-25 20:00:00 0 6844 25.28 24.23 26.88 63.13 17.5 17.3
2017-06-25 21:00:00 0 6826 23.49 22.94 24.11 71.92 17.9 17.7
2017-06-25 22:00:00 0 6826 23.86 23.55 24 71.44 18.2 18
2017-06-25 23:00:00 0 6826 23.47 22.65 24.14 75.03 18.6 18.4
2017-06-26 00:00:00 0 6826 22.21 21.72 22.61 85.95 19.6 19.1
2017-06-26 01:00:00 0 6816 20.83 20.33 21.75 92.71 19.4 19.2
2017-06-26 02:00:00 0 6816 20.44 20.07 20.68 93.87 19.2 19
2017-06-26 03:00:00 0 6816 19.79 19.07 20.17 96.31 19 18.7
2017-06-26 04:00:00 0 6806 18.51 18 18.99 99.94 18.4 18
2017-06-26 05:00:00 0 6844 18.62 18.29 19.11 100 18.5 18.2
2017-06-26 06:00:00 0 7030 20.63 19.01 21.64 98.78 20.3 19
2017-06-26 07:00:00 0 7324 23.04 22.08 24.04 86.65 20.5 20
2017-06-26 08:00:00 0 7332 25.45 23.8 27.03 76.59 20.8 20.5
2017-06-26 09:00:00 0 7324 27.08 26.21 28.56 69.77 20.9 20.4
2017-06-26 10:00:00 0 7324 28.83 28.48 29.49 64.23 21.1 20.7
2017-06-26 11:00:00 0 7324 30.65 29.22 31.45 57.05 20.9 20.2
2017-06-26 12:00:00 0 7314 32.17 31.27 32.97 50.94 20.5 19.6
2017-06-26 13:00:00 0 7314 33.08 32.6 33.68 48.64 20.6 19.7
2017-06-26 14:00:00 0 7324 33.23 32.59 34.07 46.43 19.9 18.9
2017-06-26 15:00:00 0 7176 33.2 32.15 34.83 42.89 18.7 17.8
2017-06-26 16:00:00 0 7314 30.92 29.62 33.2 50.7 19.2 18.1
2017-06-26 17:00:00 0.6 6864 26.55 24.18 29.94 67.21 19.4 17
2017-06-26 18:00:00 1 6992 24.81 24.24 25.69 88.1 22.5 21.5
2017-06-26 19:00:00 0 6914 25.49 24.37 26.5 86.09 22.8 21.8
2017-06-26 20:00:00 6.8 6834 22.13 19.01 24.81 89.9 20.2 17.8
2017-06-26 21:00:00 5.4 6816 19.6 19.47 19.79 100 19.5 19.4
2017-06-26 22:00:00 1.6 6816 19.51 19.46 19.62 100 19.4 19.4
2017-06-26 23:00:00 0 6816 19.16 18.83 19.4 100 19.1 18.8
2017-06-27 00:00:00 0 6806 19.02 18.81 19.2 100 18.9 18.8
2017-06-27 01:00:00 0 6806 18.67 18.5 18.91 100 18.6 18.5
2017-06-27 02:00:00 0 6816 18.35 17.98 18.67 100 18.3 17.9
2017-06-27 03:00:00 0 6796 17.97 17.75 18.13 100 17.9 17.7
2017-06-27 04:00:00 0 6806 17.83 17.64 18.02 100 17.7 17.6
2017-06-27 05:00:00 0 6834 18.13 17.88 18.51 100 18 17.8